sensor_id;sensor_type;location;lat;lon;timestamp;P1;durP1;ratioP1;P2;durP2;ratioP2
5539;SDS011;2792;52.452;9.752;2023-05-07T00:02:22;19.43;;;14.50;;
5539;SDS011;2792;52.452;9.752;2023-05-07T00:04:50;20.73;;;15.30;;
5539;SDS011;2792;52.452;9.752;2023-05-07T00:07:17;20.60;;;14.10;;
5539;SDS011;2792;52.452;9.752;2023-05-07T00:09:44;20.10;;;14.90;;
5539;SDS011;2792;52.452;9.752;2023-05-07T00:12:10;19.20;;;13.90;;
5539;SDS011;2792;52.452;9.752;2023-05-07T00:14:37;21.50;;;15.50;;
5539;SDS011;2792;52.452;9.752;2023-05-07T00:17:03;19.90;;;14.10;;
5539;SDS011;2792;52.452;9.752;2023-05-07T00:19:30;22.20;;;14.80;;
5539;SDS011;2792;52.452;9.752;2023-05-07T00:21:58;21.47;;;14.53;;
5539;SDS011;2792;52.452;9.752;2023-05-07T00:24:24;22.57;;;16.43;;
5539;SDS011;2792;52.452;9.752;2023-05-07T00:26:51;24.67;;;15.63;;
5539;SDS011;2792;52.452;9.752;2023-05-07T00:29:18;20.30;;;14.63;;
5539;SDS011;2792;52.452;9.752;2023-05-07T00:31:45;20.17;;;15.57;;
5539;SDS011;2792;52.452;9.752;2023-05-07T00:34:11;19.80;;;14.53;;
5539;SDS011;2792;52.452;9.752;2023-05-07T00:36:38;22.63;;;15.60;;
5539;SDS011;2792;52.452;9.752;2023-05-07T00:39:05;19.90;;;14.53;;
5539;SDS011;2792;52.452;9.752;2023-05-07T00:41:32;22.57;;;15.37;;
5539;SDS011;2792;52.452;9.752;2023-05-07T00:43:58;22.40;;;15.60;;
5539;SDS011;2792;52.452;9.752;2023-05-07T00:46:25;21.13;;;15.30;;
5539;SDS011;2792;52.452;9.752;2023-05-07T00:48:52;24.13;;;15.80;;
5539;SDS011;2792;52.452;9.752;2023-05-07T00:51:19;23.13;;;15.00;;
5539;SDS011;2792;52.452;9.752;2023-05-07T00:53:46;25.60;;;14.73;;
5539;SDS011;2792;52.452;9.752;2023-05-07T00:56:14;20.90;;;15.13;;
5539;SDS011;2792;52.452;9.752;2023-05-07T00:58:40;22.67;;;15.20;;
5539;SDS011;2792;52.452;9.752;2023-05-07T01:01:07;25.00;;;16.13;;
5539;SDS011;2792;52.452;9.752;2023-05-07T01:03:33;22.00;;;15.20;;
5539;SDS011;2792;52.452;9.752;2023-05-07T01:06:00;24.40;;;16.80;;
5539;SDS011;2792;52.452;9.752;2023-05-07T01:08:27;28.00;;;16.10;;
5539;SDS011;2792;52.452;9.752;2023-05-07T01:10:54;22.80;;;15.83;;
5539;SDS011;2792;52.452;9.752;2023-05-07T01:13:22;23.80;;;15.73;;
5539;SDS011;2792;52.452;9.752;2023-05-07T01:15:49;23.90;;;15.87;;
5539;SDS011;2792;52.452;9.752;2023-05-07T01:18:16;22.13;;;14.97;;
5539;SDS011;2792;52.452;9.752;2023-05-07T01:20:42;21.90;;;15.77;;
5539;SDS011;2792;52.452;9.752;2023-05-07T01:23:11;24.60;;;17.00;;
5539;SDS011;2792;52.452;9.752;2023-05-07T01:25:37;24.03;;;17.07;;
5539;SDS011;2792;52.452;9.752;2023-05-07T01:28:04;26.00;;;17.00;;
5539;SDS011;2792;52.452;9.752;2023-05-07T01:30:30;23.23;;;15.67;;
5539;SDS011;2792;52.452;9.752;2023-05-07T01:33:00;25.10;;;16.77;;
5539;SDS011;2792;52.452;9.752;2023-05-07T01:35:30;25.53;;;16.30;;
5539;SDS011;2792;52.452;9.752;2023-05-07T01:37:59;27.00;;;17.53;;
5539;SDS011;2792;52.452;9.752;2023-05-07T01:40:30;24.13;;;16.47;;
5539;SDS011;2792;52.452;9.752;2023-05-07T01:42:57;24.17;;;16.77;;
5539;SDS011;2792;52.452;9.752;2023-05-07T01:45:23;23.93;;;17.37;;
5539;SDS011;2792;52.452;9.752;2023-05-07T01:47:51;25.83;;;16.13;;
5539;SDS011;2792;52.452;9.752;2023-05-07T01:50:18;27.63;;;16.63;;
5539;SDS011;2792;52.452;9.752;2023-05-07T01:52:45;26.97;;;16.67;;
5539;SDS011;2792;52.452;9.752;2023-05-07T01:55:12;27.87;;;16.40;;
5539;SDS011;2792;52.452;9.752;2023-05-07T01:57:40;23.77;;;15.43;;
5539;SDS011;2792;52.452;9.752;2023-05-07T02:00:07;25.70;;;16.00;;
5539;SDS011;2792;52.452;9.752;2023-05-07T02:02:34;25.40;;;17.70;;
5539;SDS011;2792;52.452;9.752;2023-05-07T02:05:01;24.30;;;14.93;;
5539;SDS011;2792;52.452;9.752;2023-05-07T02:07:27;25.80;;;17.50;;
5539;SDS011;2792;52.452;9.752;2023-05-07T02:09:54;28.80;;;17.33;;
5539;SDS011;2792;52.452;9.752;2023-05-07T02:12:21;26.53;;;18.00;;
5539;SDS011;2792;52.452;9.752;2023-05-07T02:14:49;29.27;;;17.90;;
5539;SDS011;2792;52.452;9.752;2023-05-07T02:17:15;27.20;;;18.50;;
5539;SDS011;2792;52.452;9.752;2023-05-07T02:19:42;28.40;;;18.30;;
5539;SDS011;2792;52.452;9.752;2023-05-07T02:22:09;29.33;;;18.53;;
5539;SDS011;2792;52.452;9.752;2023-05-07T02:24:36;26.30;;;17.30;;
5539;SDS011;2792;52.452;9.752;2023-05-07T02:27:02;27.03;;;19.60;;
5539;SDS011;2792;52.452;9.752;2023-05-07T02:29:29;30.40;;;18.57;;
5539;SDS011;2792;52.452;9.752;2023-05-07T02:31:57;23.07;;;16.37;;
5539;SDS011;2792;52.452;9.752;2023-05-07T02:34:23;24.30;;;15.90;;
5539;SDS011;2792;52.452;9.752;2023-05-07T02:36:50;24.53;;;15.43;;
5539;SDS011;2792;52.452;9.752;2023-05-07T02:39:16;21.83;;;15.20;;
5539;SDS011;2792;52.452;9.752;2023-05-07T02:41:43;23.13;;;15.00;;
5539;SDS011;2792;52.452;9.752;2023-05-07T02:44:09;26.03;;;15.80;;
5539;SDS011;2792;52.452;9.752;2023-05-07T02:46:36;26.73;;;15.20;;
5539;SDS011;2792;52.452;9.752;2023-05-07T02:49:04;25.50;;;16.30;;
5539;SDS011;2792;52.452;9.752;2023-05-07T02:51:31;23.83;;;15.63;;
5539;SDS011;2792;52.452;9.752;2023-05-07T02:53:57;23.60;;;15.07;;
5539;SDS011;2792;52.452;9.752;2023-05-07T02:56:25;23.83;;;14.93;;
5539;SDS011;2792;52.452;9.752;2023-05-07T02:58:52;23.17;;;15.27;;
5539;SDS011;2792;52.452;9.752;2023-05-07T03:01:18;21.10;;;14.30;;
5539;SDS011;2792;52.452;9.752;2023-05-07T03:03:45;18.57;;;13.80;;
5539;SDS011;2792;52.452;9.752;2023-05-07T03:06:13;20.83;;;13.53;;
5539;SDS011;2792;52.452;9.752;2023-05-07T03:08:40;21.23;;;14.13;;
5539;SDS011;2792;52.452;9.752;2023-05-07T03:11:06;19.13;;;13.30;;
5539;SDS011;2792;52.452;9.752;2023-05-07T03:13:33;21.23;;;13.00;;
5539;SDS011;2792;52.452;9.752;2023-05-07T03:15:59;19.23;;;12.57;;
5539;SDS011;2792;52.452;9.752;2023-05-07T03:18:26;17.03;;;12.90;;
5539;SDS011;2792;52.452;9.752;2023-05-07T03:20:52;18.87;;;11.97;;
5539;SDS011;2792;52.452;9.752;2023-05-07T03:23:20;17.90;;;12.50;;
5539;SDS011;2792;52.452;9.752;2023-05-07T03:25:47;16.60;;;11.67;;
5539;SDS011;2792;52.452;9.752;2023-05-07T03:28:14;16.20;;;11.43;;
5539;SDS011;2792;52.452;9.752;2023-05-07T03:30:41;17.27;;;10.87;;
5539;SDS011;2792;52.452;9.752;2023-05-07T03:33:07;16.73;;;10.63;;
5539;SDS011;2792;52.452;9.752;2023-05-07T03:35:34;16.80;;;12.43;;
5539;SDS011;2792;52.452;9.752;2023-05-07T03:38:00;15.20;;;10.53;;
5539;SDS011;2792;52.452;9.752;2023-05-07T03:40:28;14.97;;;11.03;;
5539;SDS011;2792;52.452;9.752;2023-05-07T03:42:55;18.80;;;11.60;;
5539;SDS011;2792;52.452;9.752;2023-05-07T03:45:21;17.73;;;11.10;;
5539;SDS011;2792;52.452;9.752;2023-05-07T03:47:48;15.67;;;11.17;;
5539;SDS011;2792;52.452;9.752;2023-05-07T03:50:14;15.90;;;11.17;;
5539;SDS011;2792;52.452;9.752;2023-05-07T03:52:41;15.90;;;11.40;;
5539;SDS011;2792;52.452;9.752;2023-05-07T03:55:07;14.90;;;11.50;;
5539;SDS011;2792;52.452;9.752;2023-05-07T03:57:36;17.63;;;11.53;;
5539;SDS011;2792;52.452;9.752;2023-05-07T04:00:02;14.50;;;10.70;;
5539;SDS011;2792;52.452;9.752;2023-05-07T04:02:31;15.20;;;10.67;;
5539;SDS011;2792;52.452;9.752;2023-05-07T04:04:59;16.97;;;11.80;;
5539;SDS011;2792;52.452;9.752;2023-05-07T04:07:25;16.30;;;10.90;;
5539;SDS011;2792;52.452;9.752;2023-05-07T04:09:52;14.20;;;11.23;;
5539;SDS011;2792;52.452;9.752;2023-05-07T04:12:18;16.10;;;10.97;;
5539;SDS011;2792;52.452;9.752;2023-05-07T04:14:46;13.60;;;10.40;;
5539;SDS011;2792;52.452;9.752;2023-05-07T04:17:12;15.10;;;11.90;;
5539;SDS011;2792;52.452;9.752;2023-05-07T04:19:39;15.87;;;11.63;;
5539;SDS011;2792;52.452;9.752;2023-05-07T04:22:10;14.03;;;10.07;;
5539;SDS011;2792;52.452;9.752;2023-05-07T04:24:36;12.40;;;10.60;;
5539;SDS011;2792;52.452;9.752;2023-05-07T04:27:03;13.17;;;9.90;;
5539;SDS011;2792;52.452;9.752;2023-05-07T04:29:29;14.07;;;10.77;;
5539;SDS011;2792;52.452;9.752;2023-05-07T04:31:57;13.00;;;10.00;;
5539;SDS011;2792;52.452;9.752;2023-05-07T04:34:24;14.00;;;9.73;;
5539;SDS011;2792;52.452;9.752;2023-05-07T04:36:50;13.17;;;10.00;;
5539;SDS011;2792;52.452;9.752;2023-05-07T04:39:16;13.90;;;9.50;;
5539;SDS011;2792;52.452;9.752;2023-05-07T04:41:43;13.73;;;10.80;;
5539;SDS011;2792;52.452;9.752;2023-05-07T04:44:09;15.90;;;9.77;;
5539;SDS011;2792;52.452;9.752;2023-05-07T04:46:36;12.73;;;9.87;;
5539;SDS011;2792;52.452;9.752;2023-05-07T04:49:04;13.27;;;9.70;;
5539;SDS011;2792;52.452;9.752;2023-05-07T04:51:30;12.40;;;9.87;;
5539;SDS011;2792;52.452;9.752;2023-05-07T04:53:57;13.40;;;10.10;;
5539;SDS011;2792;52.452;9.752;2023-05-07T04:56:24;12.70;;;9.27;;
5539;SDS011;2792;52.452;9.752;2023-05-07T04:58:50;12.07;;;8.90;;
5539;SDS011;2792;52.452;9.752;2023-05-07T05:01:17;14.93;;;10.00;;
5539;SDS011;2792;52.452;9.752;2023-05-07T05:03:43;15.60;;;10.67;;
5539;SDS011;2792;52.452;9.752;2023-05-07T05:06:11;13.70;;;10.10;;
5539;SDS011;2792;52.452;9.752;2023-05-07T05:08:37;11.20;;;8.70;;
5539;SDS011;2792;52.452;9.752;2023-05-07T05:11:04;13.60;;;10.00;;
5539;SDS011;2792;52.452;9.752;2023-05-07T05:13:31;12.63;;;9.70;;
5539;SDS011;2792;52.452;9.752;2023-05-07T05:15:57;12.17;;;9.07;;
5539;SDS011;2792;52.452;9.752;2023-05-07T05:18:24;12.87;;;9.40;;
5539;SDS011;2792;52.452;9.752;2023-05-07T05:20:51;11.43;;;8.70;;
5539;SDS011;2792;52.452;9.752;2023-05-07T05:23:18;11.70;;;8.93;;
5539;SDS011;2792;52.452;9.752;2023-05-07T05:25:45;12.60;;;9.20;;
5539;SDS011;2792;52.452;9.752;2023-05-07T05:28:11;11.87;;;8.97;;
5539;SDS011;2792;52.452;9.752;2023-05-07T05:30:38;11.10;;;9.10;;
5539;SDS011;2792;52.452;9.752;2023-05-07T05:33:05;13.90;;;10.00;;
5539;SDS011;2792;52.452;9.752;2023-05-07T05:35:31;13.93;;;10.47;;
5539;SDS011;2792;52.452;9.752;2023-05-07T05:37:58;14.13;;;9.63;;
5539;SDS011;2792;52.452;9.752;2023-05-07T05:40:26;12.53;;;9.30;;
5539;SDS011;2792;52.452;9.752;2023-05-07T05:42:53;11.53;;;9.23;;
5539;SDS011;2792;52.452;9.752;2023-05-07T05:45:20;11.53;;;9.30;;
5539;SDS011;2792;52.452;9.752;2023-05-07T05:47:46;11.50;;;9.10;;
5539;SDS011;2792;52.452;9.752;2023-05-07T05:50:13;9.63;;;8.50;;
5539;SDS011;2792;52.452;9.752;2023-05-07T05:52:39;11.00;;;8.10;;
5539;SDS011;2792;52.452;9.752;2023-05-07T05:55:07;10.80;;;8.60;;
5539;SDS011;2792;52.452;9.752;2023-05-07T05:57:35;11.40;;;8.73;;
5539;SDS011;2792;52.452;9.752;2023-05-07T06:00:02;10.10;;;8.50;;
5539;SDS011;2792;52.452;9.752;2023-05-07T06:02:30;9.73;;;8.47;;
5539;SDS011;2792;52.452;9.752;2023-05-07T06:04:56;9.70;;;8.60;;
5539;SDS011;2792;52.452;9.752;2023-05-07T06:07:23;12.00;;;7.87;;
5539;SDS011;2792;52.452;9.752;2023-05-07T06:09:49;9.73;;;7.70;;
5539;SDS011;2792;52.452;9.752;2023-05-07T06:12:16;8.83;;;7.67;;
5539;SDS011;2792;52.452;9.752;2023-05-07T06:14:44;8.13;;;7.17;;
5539;SDS011;2792;52.452;9.752;2023-05-07T06:17:10;8.87;;;7.30;;
5539;SDS011;2792;52.452;9.752;2023-05-07T06:19:36;8.57;;;7.43;;
5539;SDS011;2792;52.452;9.752;2023-05-07T06:22:03;10.77;;;7.10;;
5539;SDS011;2792;52.452;9.752;2023-05-07T06:24:29;8.50;;;7.20;;
5539;SDS011;2792;52.452;9.752;2023-05-07T06:26:56;8.00;;;7.10;;
5539;SDS011;2792;52.452;9.752;2023-05-07T06:29:23;8.83;;;7.60;;
5539;SDS011;2792;52.452;9.752;2023-05-07T06:31:52;8.70;;;7.77;;
5539;SDS011;2792;52.452;9.752;2023-05-07T06:34:18;10.43;;;7.83;;
5539;SDS011;2792;52.452;9.752;2023-05-07T06:36:45;6.17;;;5.57;;
5539;SDS011;2792;52.452;9.752;2023-05-07T06:39:11;7.83;;;7.03;;
5539;SDS011;2792;52.452;9.752;2023-05-07T06:41:38;7.10;;;6.23;;
5539;SDS011;2792;52.452;9.752;2023-05-07T06:44:04;7.63;;;6.83;;
5539;SDS011;2792;52.452;9.752;2023-05-07T06:46:31;7.70;;;7.00;;
5539;SDS011;2792;52.452;9.752;2023-05-07T06:48:59;7.60;;;6.80;;
5539;SDS011;2792;52.452;9.752;2023-05-07T06:51:25;8.23;;;6.80;;
5539;SDS011;2792;52.452;9.752;2023-05-07T06:53:52;7.27;;;6.30;;
5539;SDS011;2792;52.452;9.752;2023-05-07T06:56:18;8.40;;;7.20;;
5539;SDS011;2792;52.452;9.752;2023-05-07T06:58:45;11.77;;;7.30;;
5539;SDS011;2792;52.452;9.752;2023-05-07T07:01:11;8.20;;;7.10;;
5539;SDS011;2792;52.452;9.752;2023-05-07T07:03:38;7.93;;;7.00;;
5539;SDS011;2792;52.452;9.752;2023-05-07T07:06:06;8.37;;;6.87;;
5539;SDS011;2792;52.452;9.752;2023-05-07T07:08:32;8.93;;;7.90;;
5539;SDS011;2792;52.452;9.752;2023-05-07T07:10:59;8.80;;;7.30;;
5539;SDS011;2792;52.452;9.752;2023-05-07T07:13:26;8.73;;;7.13;;
5539;SDS011;2792;52.452;9.752;2023-05-07T07:15:52;9.60;;;7.90;;
5539;SDS011;2792;52.452;9.752;2023-05-07T07:18:19;8.43;;;7.60;;
5539;SDS011;2792;52.452;9.752;2023-05-07T07:20:45;8.47;;;7.17;;
5539;SDS011;2792;52.452;9.752;2023-05-07T07:23:13;8.70;;;7.90;;
5539;SDS011;2792;52.452;9.752;2023-05-07T07:25:40;10.40;;;8.57;;
5539;SDS011;2792;52.452;9.752;2023-05-07T07:28:06;10.27;;;8.40;;
5539;SDS011;2792;52.452;9.752;2023-05-07T07:30:33;9.90;;;8.80;;
5539;SDS011;2792;52.452;9.752;2023-05-07T07:32:59;10.00;;;8.53;;
5539;SDS011;2792;52.452;9.752;2023-05-07T07:35:28;9.07;;;8.10;;
5539;SDS011;2792;52.452;9.752;2023-05-07T07:37:54;9.57;;;8.63;;
5539;SDS011;2792;52.452;9.752;2023-05-07T07:40:22;8.97;;;8.03;;
5539;SDS011;2792;52.452;9.752;2023-05-07T07:42:49;8.87;;;7.97;;
5539;SDS011;2792;52.452;9.752;2023-05-07T07:45:15;10.30;;;8.53;;
5539;SDS011;2792;52.452;9.752;2023-05-07T07:47:42;9.07;;;8.17;;
5539;SDS011;2792;52.452;9.752;2023-05-07T07:50:09;8.77;;;7.87;;
5539;SDS011;2792;52.452;9.752;2023-05-07T07:52:35;12.63;;;8.30;;
5539;SDS011;2792;52.452;9.752;2023-05-07T07:55:02;9.23;;;8.20;;
5539;SDS011;2792;52.452;9.752;2023-05-07T07:57:30;8.47;;;6.87;;
5539;SDS011;2792;52.452;9.752;2023-05-07T07:59:57;8.23;;;6.90;;
5539;SDS011;2792;52.452;9.752;2023-05-07T08:02:23;9.60;;;7.90;;
5539;SDS011;2792;52.452;9.752;2023-05-07T08:04:50;8.83;;;6.90;;
5539;SDS011;2792;52.452;9.752;2023-05-07T08:07:16;9.33;;;7.40;;
5539;SDS011;2792;52.452;9.752;2023-05-07T08:09:45;8.60;;;7.70;;
5539;SDS011;2792;52.452;9.752;2023-05-07T08:12:12;9.30;;;7.60;;
5539;SDS011;2792;52.452;9.752;2023-05-07T08:14:40;8.20;;;6.60;;
5539;SDS011;2792;52.452;9.752;2023-05-07T08:17:06;7.90;;;6.93;;
5539;SDS011;2792;52.452;9.752;2023-05-07T08:19:34;7.77;;;6.67;;
5539;SDS011;2792;52.452;9.752;2023-05-07T08:22:01;7.17;;;6.43;;
5539;SDS011;2792;52.452;9.752;2023-05-07T08:24:29;7.53;;;5.57;;
5539;SDS011;2792;52.452;9.752;2023-05-07T08:26:55;6.33;;;5.73;;
5539;SDS011;2792;52.452;9.752;2023-05-07T08:29:22;6.57;;;5.87;;
5539;SDS011;2792;52.452;9.752;2023-05-07T08:31:49;6.50;;;5.80;;
5539;SDS011;2792;52.452;9.752;2023-05-07T08:34:16;6.30;;;5.70;;
5539;SDS011;2792;52.452;9.752;2023-05-07T08:36:42;6.40;;;5.80;;
5539;SDS011;2792;52.452;9.752;2023-05-07T08:39:19;6.37;;;5.77;;
5539;SDS011;2792;52.452;9.752;2023-05-07T08:41:45;6.30;;;5.70;;
5539;SDS011;2792;52.452;9.752;2023-05-07T08:44:12;7.80;;;5.97;;
5539;SDS011;2792;52.452;9.752;2023-05-07T08:46:40;5.90;;;5.10;;
5539;SDS011;2792;52.452;9.752;2023-05-07T08:49:08;6.13;;;5.57;;
5539;SDS011;2792;52.452;9.752;2023-05-07T08:51:35;6.20;;;5.47;;
5539;SDS011;2792;52.452;9.752;2023-05-07T08:54:02;6.40;;;5.80;;
5539;SDS011;2792;52.452;9.752;2023-05-07T08:56:29;5.93;;;5.33;;
5539;SDS011;2792;52.452;9.752;2023-05-07T08:58:56;5.90;;;5.40;;
5539;SDS011;2792;52.452;9.752;2023-05-07T09:01:23;6.70;;;6.03;;
5539;SDS011;2792;52.452;9.752;2023-05-07T09:03:50;7.50;;;5.87;;
5539;SDS011;2792;52.452;9.752;2023-05-07T09:06:17;8.40;;;6.10;;
5539;SDS011;2792;52.452;9.752;2023-05-07T09:08:48;7.50;;;6.10;;
5539;SDS011;2792;52.452;9.752;2023-05-07T09:11:16;9.17;;;6.60;;
5539;SDS011;2792;52.452;9.752;2023-05-07T09:13:43;6.30;;;5.50;;
5539;SDS011;2792;52.452;9.752;2023-05-07T09:16:10;6.27;;;5.67;;
5539;SDS011;2792;52.452;9.752;2023-05-07T09:18:40;6.60;;;5.90;;
5539;SDS011;2792;52.452;9.752;2023-05-07T09:21:09;6.30;;;5.70;;
5539;SDS011;2792;52.452;9.752;2023-05-07T09:23:36;6.30;;;5.70;;
5539;SDS011;2792;52.452;9.752;2023-05-07T09:26:02;6.73;;;5.90;;
5539;SDS011;2792;52.452;9.752;2023-05-07T09:28:32;7.70;;;6.70;;
5539;SDS011;2792;52.452;9.752;2023-05-07T09:31:00;7.37;;;6.17;;
5539;SDS011;2792;52.452;9.752;2023-05-07T09:33:28;6.73;;;5.80;;
5539;SDS011;2792;52.452;9.752;2023-05-07T09:35:55;6.63;;;5.93;;
5539;SDS011;2792;52.452;9.752;2023-05-07T09:38:21;9.00;;;6.70;;
5539;SDS011;2792;52.452;9.752;2023-05-07T09:40:48;6.87;;;6.20;;
5539;SDS011;2792;52.452;9.752;2023-05-07T09:43:27;6.60;;;6.00;;
5539;SDS011;2792;52.452;9.752;2023-05-07T09:45:59;7.23;;;6.53;;
5539;SDS011;2792;52.452;9.752;2023-05-07T09:48:29;6.67;;;5.77;;
5539;SDS011;2792;52.452;9.752;2023-05-07T09:50:55;6.77;;;6.07;;
5539;SDS011;2792;52.452;9.752;2023-05-07T09:53:23;7.13;;;6.43;;
5539;SDS011;2792;52.452;9.752;2023-05-07T09:55:50;6.60;;;5.80;;
5539;SDS011;2792;52.452;9.752;2023-05-07T09:58:17;7.50;;;6.43;;
5539;SDS011;2792;52.452;9.752;2023-05-07T10:00:44;6.40;;;5.80;;
5539;SDS011;2792;52.452;9.752;2023-05-07T10:03:12;9.00;;;7.30;;
5539;SDS011;2792;52.452;9.752;2023-05-07T10:05:40;8.07;;;6.80;;
5539;SDS011;2792;52.452;9.752;2023-05-07T10:08:09;8.20;;;7.33;;
5539;SDS011;2792;52.452;9.752;2023-05-07T10:10:36;8.30;;;7.40;;
5539;SDS011;2792;52.452;9.752;2023-05-07T10:13:02;8.00;;;7.20;;
5539;SDS011;2792;52.452;9.752;2023-05-07T10:15:30;7.90;;;7.00;;
5539;SDS011;2792;52.452;9.752;2023-05-07T10:17:57;9.27;;;8.27;;
5539;SDS011;2792;52.452;9.752;2023-05-07T10:20:25;8.07;;;7.27;;
5539;SDS011;2792;52.452;9.752;2023-05-07T10:22:52;9.37;;;8.10;;
5539;SDS011;2792;52.452;9.752;2023-05-07T10:25:20;8.23;;;7.40;;
5539;SDS011;2792;52.452;9.752;2023-05-07T10:27:49;7.50;;;6.80;;
5539;SDS011;2792;52.452;9.752;2023-05-07T10:30:19;7.97;;;7.10;;
5539;SDS011;2792;52.452;9.752;2023-05-07T10:32:53;8.60;;;7.70;;
5539;SDS011;2792;52.452;9.752;2023-05-07T10:35:21;8.50;;;7.40;;
5539;SDS011;2792;52.452;9.752;2023-05-07T10:37:50;9.33;;;7.83;;
5539;SDS011;2792;52.452;9.752;2023-05-07T10:40:17;7.63;;;6.83;;
5539;SDS011;2792;52.452;9.752;2023-05-07T10:42:54;7.37;;;6.67;;
5539;SDS011;2792;52.452;9.752;2023-05-07T10:45:22;7.00;;;6.37;;
5539;SDS011;2792;52.452;9.752;2023-05-07T10:48:08;7.53;;;6.57;;
5539;SDS011;2792;52.452;9.752;2023-05-07T10:50:36;7.47;;;6.77;;
5539;SDS011;2792;52.452;9.752;2023-05-07T10:53:21;8.27;;;7.47;;
5539;SDS011;2792;52.452;9.752;2023-05-07T10:55:52;9.40;;;8.40;;
5539;SDS011;2792;52.452;9.752;2023-05-07T10:58:54;8.40;;;7.60;;
5539;SDS011;2792;52.452;9.752;2023-05-07T11:04:19;9.03;;;8.10;;
5539;SDS011;2792;52.452;9.752;2023-05-07T11:09:57;8.33;;;7.33;;
5539;SDS011;2792;52.452;9.752;2023-05-07T11:18:04;8.70;;;7.80;;
5539;SDS011;2792;52.452;9.752;2023-05-07T11:20:47;11.87;;;6.90;;
5539;SDS011;2792;52.452;9.752;2023-05-07T11:26:42;6.17;;;5.53;;
5539;SDS011;2792;52.452;9.752;2023-05-07T11:29:12;6.30;;;5.70;;
5539;SDS011;2792;52.452;9.752;2023-05-07T11:31:40;6.27;;;5.67;;
5539;SDS011;2792;52.452;9.752;2023-05-07T11:34:07;5.97;;;5.47;;
5539;SDS011;2792;52.452;9.752;2023-05-07T11:36:34;7.37;;;6.67;;
5539;SDS011;2792;52.452;9.752;2023-05-07T11:39:00;8.70;;;6.40;;
5539;SDS011;2792;52.452;9.752;2023-05-07T11:41:33;6.80;;;6.17;;
5539;SDS011;2792;52.452;9.752;2023-05-07T11:44:00;6.30;;;5.70;;
5539;SDS011;2792;52.452;9.752;2023-05-07T11:46:28;8.03;;;6.20;;
5539;SDS011;2792;52.452;9.752;2023-05-07T11:48:55;7.00;;;6.30;;
5539;SDS011;2792;52.452;9.752;2023-05-07T11:51:22;6.40;;;5.80;;
5539;SDS011;2792;52.452;9.752;2023-05-07T11:53:51;7.13;;;6.00;;
5539;SDS011;2792;52.452;9.752;2023-05-07T11:56:17;8.00;;;6.20;;
5539;SDS011;2792;52.452;9.752;2023-05-07T11:58:45;9.40;;;6.20;;
5539;SDS011;2792;52.452;9.752;2023-05-07T12:01:13;6.30;;;5.70;;
5539;SDS011;2792;52.452;9.752;2023-05-07T12:03:42;6.57;;;5.57;;
5539;SDS011;2792;52.452;9.752;2023-05-07T12:06:10;7.47;;;6.60;;
5539;SDS011;2792;52.452;9.752;2023-05-07T12:08:38;5.97;;;5.40;;
5539;SDS011;2792;52.452;9.752;2023-05-07T12:11:06;6.60;;;5.73;;
5539;SDS011;2792;52.452;9.752;2023-05-07T12:13:34;5.70;;;5.10;;
5539;SDS011;2792;52.452;9.752;2023-05-07T12:16:01;6.47;;;5.87;;
5539;SDS011;2792;52.452;9.752;2023-05-07T12:18:28;9.40;;;6.40;;
5539;SDS011;2792;52.452;9.752;2023-05-07T12:20:56;7.07;;;6.37;;
5539;SDS011;2792;52.452;9.752;2023-05-07T12:23:23;5.83;;;5.20;;
5539;SDS011;2792;52.452;9.752;2023-05-07T12:25:49;6.33;;;5.73;;
5539;SDS011;2792;52.452;9.752;2023-05-07T12:28:16;11.07;;;5.90;;
5539;SDS011;2792;52.452;9.752;2023-05-07T12:30:46;6.10;;;5.50;;
5539;SDS011;2792;52.452;9.752;2023-05-07T12:33:15;9.20;;;5.80;;
5539;SDS011;2792;52.452;9.752;2023-05-07T12:35:42;6.63;;;5.30;;
5539;SDS011;2792;52.452;9.752;2023-05-07T12:38:11;5.23;;;4.80;;
5539;SDS011;2792;52.452;9.752;2023-05-07T12:40:39;8.20;;;5.37;;
5539;SDS011;2792;52.452;9.752;2023-05-07T12:43:07;7.13;;;5.33;;
5539;SDS011;2792;52.452;9.752;2023-05-07T12:45:36;5.57;;;4.70;;
5539;SDS011;2792;52.452;9.752;2023-05-07T12:48:03;5.57;;;4.70;;
5539;SDS011;2792;52.452;9.752;2023-05-07T12:50:31;6.57;;;4.87;;
5539;SDS011;2792;52.452;9.752;2023-05-07T12:52:58;4.97;;;4.30;;
5539;SDS011;2792;52.452;9.752;2023-05-07T12:55:26;5.10;;;4.60;;
5539;SDS011;2792;52.452;9.752;2023-05-07T12:57:55;5.30;;;4.60;;
5539;SDS011;2792;52.452;9.752;2023-05-07T13:00:35;5.57;;;4.63;;
5539;SDS011;2792;52.452;9.752;2023-05-07T13:03:03;5.13;;;4.30;;
5539;SDS011;2792;52.452;9.752;2023-05-07T13:05:29;4.30;;;4.00;;
5539;SDS011;2792;52.452;9.752;2023-05-07T13:07:56;8.00;;;4.43;;
5539;SDS011;2792;52.452;9.752;2023-05-07T13:10:23;4.87;;;4.03;;
5539;SDS011;2792;52.452;9.752;2023-05-07T13:12:51;5.30;;;4.57;;
5539;SDS011;2792;52.452;9.752;2023-05-07T13:15:18;4.80;;;4.20;;
5539;SDS011;2792;52.452;9.752;2023-05-07T13:17:44;4.63;;;4.23;;
5539;SDS011;2792;52.452;9.752;2023-05-07T13:20:11;4.70;;;4.30;;
5539;SDS011;2792;52.452;9.752;2023-05-07T13:22:38;4.77;;;4.27;;
5539;SDS011;2792;52.452;9.752;2023-05-07T13:25:05;4.80;;;4.40;;
5539;SDS011;2792;52.452;9.752;2023-05-07T13:27:33;5.30;;;4.10;;
5539;SDS011;2792;52.452;9.752;2023-05-07T13:30:03;4.93;;;4.43;;
5539;SDS011;2792;52.452;9.752;2023-05-07T13:32:30;5.47;;;4.90;;
5539;SDS011;2792;52.452;9.752;2023-05-07T13:34:57;11.03;;;9.93;;
5539;SDS011;2792;52.452;9.752;2023-05-07T13:37:24;8.30;;;6.37;;
5539;SDS011;2792;52.452;9.752;2023-05-07T13:39:50;10.10;;;9.07;;
5539;SDS011;2792;52.452;9.752;2023-05-07T13:42:17;6.27;;;5.67;;
5539;SDS011;2792;52.452;9.752;2023-05-07T13:44:43;7.87;;;7.03;;
5539;SDS011;2792;52.452;9.752;2023-05-07T13:47:11;7.60;;;6.83;;
5539;SDS011;2792;52.452;9.752;2023-05-07T13:49:38;7.23;;;6.10;;
5539;SDS011;2792;52.452;9.752;2023-05-07T13:52:04;6.20;;;5.60;;
5539;SDS011;2792;52.452;9.752;2023-05-07T13:54:31;5.53;;;4.97;;
5539;SDS011;2792;52.452;9.752;2023-05-07T13:56:58;6.37;;;5.00;;
5539;SDS011;2792;52.452;9.752;2023-05-07T13:59:24;5.87;;;5.37;;
5539;SDS011;2792;52.452;9.752;2023-05-07T14:01:51;5.40;;;4.90;;
5539;SDS011;2792;52.452;9.752;2023-05-07T14:04:18;5.87;;;5.27;;
5539;SDS011;2792;52.452;9.752;2023-05-07T14:06:45;6.47;;;4.90;;
5539;SDS011;2792;52.452;9.752;2023-05-07T14:09:11;6.73;;;6.03;;
5539;SDS011;2792;52.452;9.752;2023-05-07T14:11:38;5.70;;;5.20;;
5539;SDS011;2792;52.452;9.752;2023-05-07T14:14:04;6.20;;;5.60;;
5539;SDS011;2792;52.452;9.752;2023-05-07T14:16:31;6.07;;;5.30;;
5539;SDS011;2792;52.452;9.752;2023-05-07T14:18:57;6.60;;;5.73;;
5539;SDS011;2792;52.452;9.752;2023-05-07T14:21:25;6.27;;;5.67;;
5539;SDS011;2792;52.452;9.752;2023-05-07T14:23:52;6.53;;;5.80;;
5539;SDS011;2792;52.452;9.752;2023-05-07T14:26:18;6.47;;;5.77;;
5539;SDS011;2792;52.452;9.752;2023-05-07T14:28:45;6.00;;;5.40;;
5539;SDS011;2792;52.452;9.752;2023-05-07T14:31:12;8.50;;;5.37;;
5539;SDS011;2792;52.452;9.752;2023-05-07T14:33:39;6.23;;;5.63;;
5539;SDS011;2792;52.452;9.752;2023-05-07T14:36:05;6.73;;;5.87;;
5539;SDS011;2792;52.452;9.752;2023-05-07T14:38:33;7.80;;;6.10;;
5539;SDS011;2792;52.452;9.752;2023-05-07T14:41:00;8.13;;;5.93;;
5539;SDS011;2792;52.452;9.752;2023-05-07T14:43:26;5.43;;;4.93;;
5539;SDS011;2792;52.452;9.752;2023-05-07T14:45:53;6.13;;;5.53;;
5539;SDS011;2792;52.452;9.752;2023-05-07T14:48:19;6.33;;;5.03;;
5539;SDS011;2792;52.452;9.752;2023-05-07T14:50:46;7.07;;;5.60;;
5539;SDS011;2792;52.452;9.752;2023-05-07T14:53:13;5.23;;;4.70;;
5539;SDS011;2792;52.452;9.752;2023-05-07T14:55:41;5.30;;;4.80;;
5539;SDS011;2792;52.452;9.752;2023-05-07T14:58:07;5.70;;;4.70;;
5539;SDS011;2792;52.452;9.752;2023-05-07T15:00:34;6.30;;;4.87;;
5539;SDS011;2792;52.452;9.752;2023-05-07T15:03:03;5.80;;;4.80;;
5539;SDS011;2792;52.452;9.752;2023-05-07T15:05:31;5.30;;;4.80;;
5539;SDS011;2792;52.452;9.752;2023-05-07T15:07:58;6.47;;;5.50;;
5539;SDS011;2792;52.452;9.752;2023-05-07T15:10:24;6.60;;;5.43;;
5539;SDS011;2792;52.452;9.752;2023-05-07T15:12:52;5.50;;;4.93;;
5539;SDS011;2792;52.452;9.752;2023-05-07T15:15:19;5.47;;;4.70;;
5539;SDS011;2792;52.452;9.752;2023-05-07T15:17:45;4.93;;;4.53;;
5539;SDS011;2792;52.452;9.752;2023-05-07T15:20:12;5.93;;;4.90;;
5539;SDS011;2792;52.452;9.752;2023-05-07T15:22:38;5.20;;;4.70;;